createdAt,value
2023-03-04T00:01:09.062Z,4.84
2023-03-04T00:03:37.189Z,4.91
2023-03-04T00:06:04.103Z,4.95
2023-03-04T00:08:31.107Z,4.96
2023-03-04T00:10:57.758Z,5.01
2023-03-04T00:13:25.286Z,5.01
2023-03-04T00:15:52.405Z,5.03
2023-03-04T00:18:21.106Z,5.03
2023-03-04T00:20:49.683Z,4.97
2023-03-04T00:23:16.933Z,5.02
2023-03-04T00:25:43.886Z,4.96
2023-03-04T00:28:10.552Z,4.96
2023-03-04T00:30:37.263Z,4.88
2023-03-04T00:33:03.839Z,4.90
2023-03-04T00:35:30.525Z,4.93
2023-03-04T00:37:57.237Z,4.95
2023-03-04T00:40:23.932Z,4.92
2023-03-04T00:42:50.618Z,4.84
2023-03-04T00:45:17.320Z,4.90
2023-03-04T00:47:43.829Z,4.88
2023-03-04T00:50:11.286Z,4.86
2023-03-04T00:52:38.166Z,4.90
2023-03-04T00:55:05.649Z,4.84
2023-03-04T00:57:32.139Z,4.86
2023-03-04T00:59:58.735Z,4.82
2023-03-04T01:02:25.423Z,4.83
2023-03-04T01:04:52.060Z,4.82
2023-03-04T01:07:18.825Z,4.85
2023-03-04T01:09:45.339Z,4.81
2023-03-04T01:12:12.161Z,4.85
2023-03-04T01:14:38.696Z,4.82
2023-03-04T01:17:05.317Z,4.94
2023-03-04T01:19:32.056Z,4.87
2023-03-04T01:21:58.649Z,4.88
2023-03-04T01:24:25.247Z,4.89
2023-03-04T01:26:51.900Z,4.79
2023-03-04T01:29:18.407Z,4.82
2023-03-04T01:31:44.986Z,4.89
2023-03-04T01:34:11.576Z,4.87
2023-03-04T01:36:38.135Z,4.84
2023-03-04T01:39:05.172Z,4.87
2023-03-04T01:41:32.220Z,4.85
2023-03-04T01:44:03.396Z,4.88
2023-03-04T01:46:31.676Z,4.83
2023-03-04T01:48:58.803Z,4.87
2023-03-04T01:51:25.503Z,4.88
2023-03-04T01:53:54.852Z,4.84
2023-03-04T01:56:35.849Z,4.79
2023-03-04T01:59:15.830Z,4.91
2023-03-04T02:01:54.002Z,4.95
2023-03-04T02:04:24.539Z,4.92
2023-03-04T02:06:52.230Z,4.90
2023-03-04T02:09:19.362Z,4.83
2023-03-04T02:11:47.779Z,4.87
2023-03-04T02:14:15.414Z,4.93
2023-03-04T02:16:42.796Z,4.81
2023-03-04T02:19:56.041Z,4.76
2023-03-04T02:22:23.026Z,4.81
2023-03-04T02:24:54.661Z,4.73
2023-03-04T02:27:22.178Z,4.69
2023-03-04T02:29:49.093Z,4.69
2023-03-04T02:32:16.831Z,4.71
2023-03-04T02:34:50.833Z,4.72
2023-03-04T02:37:20.281Z,4.69
2023-03-04T02:39:48.680Z,4.77
2023-03-04T02:42:16.940Z,4.79
2023-03-04T02:44:47.705Z,4.78
2023-03-04T02:47:17.909Z,4.63
2023-03-04T02:49:45.106Z,4.84
2023-03-04T02:52:19.646Z,4.74
2023-03-04T02:54:46.499Z,4.81
2023-03-04T02:57:14.315Z,4.78
2023-03-04T02:59:41.519Z,4.70
2023-03-04T03:02:08.937Z,4.75
2023-03-04T03:04:38.259Z,4.77
2023-03-04T03:07:05.187Z,4.75
2023-03-04T03:09:31.796Z,4.69
2023-03-04T03:11:58.326Z,4.70
2023-03-04T03:14:24.849Z,4.64
2023-03-04T03:16:51.442Z,4.41
2023-03-04T03:19:17.990Z,4.46
2023-03-04T03:21:44.556Z,4.57
2023-03-04T03:24:11.120Z,4.63
2023-03-04T03:26:37.661Z,4.53
2023-03-04T03:29:04.258Z,4.54
2023-03-04T03:31:30.891Z,4.52
2023-03-04T03:33:57.587Z,4.65
2023-03-04T03:36:24.205Z,4.42
2023-03-04T03:38:50.802Z,4.51
2023-03-04T03:41:17.378Z,4.48
2023-03-04T03:43:43.918Z,4.49
2023-03-04T03:46:10.581Z,4.54
2023-03-04T03:48:37.205Z,4.43
2023-03-04T03:51:03.902Z,4.55
2023-03-04T03:53:30.516Z,4.37
2023-03-04T03:55:57.188Z,4.66
2023-03-04T03:58:23.719Z,4.63
2023-03-04T04:00:50.320Z,4.61
2023-03-04T04:03:17.683Z,4.42
2023-03-04T04:05:44.364Z,4.69
2023-03-04T04:08:15.494Z,4.72
2023-03-04T04:10:42.605Z,4.44
2023-03-04T04:13:09.586Z,4.42
2023-03-04T04:15:36.828Z,4.32
2023-03-04T04:18:03.423Z,4.50
2023-03-04T04:20:30.086Z,4.44
2023-03-04T04:22:56.945Z,4.48
2023-03-04T04:25:23.687Z,4.26
2023-03-04T04:27:50.240Z,4.40
2023-03-04T04:30:16.882Z,4.37
2023-03-04T04:32:43.458Z,4.56
2023-03-04T04:35:10.348Z,4.44
2023-03-04T04:37:36.938Z,4.45
2023-03-04T04:40:04.129Z,4.55
2023-03-04T04:42:30.844Z,4.52
2023-03-04T04:44:57.829Z,4.53
2023-03-04T04:47:24.526Z,4.41
2023-03-04T04:49:51.856Z,4.57
2023-03-04T04:52:18.755Z,4.43
2023-03-04T04:54:45.313Z,4.50
2023-03-04T04:57:11.860Z,4.41
2023-03-04T04:59:38.387Z,4.48
2023-03-04T05:02:05.059Z,4.57
2023-03-04T05:04:31.648Z,4.48
2023-03-04T05:06:58.157Z,4.60
2023-03-04T05:09:24.718Z,4.47
2023-03-04T05:11:51.308Z,4.59
2023-03-04T05:14:17.970Z,4.44
2023-03-04T05:16:44.572Z,4.53
2023-03-04T05:19:11.407Z,4.41
2023-03-04T05:21:37.978Z,4.32
2023-03-04T05:24:05.109Z,4.41
2023-03-04T05:26:31.769Z,4.24
2023-03-04T05:28:58.304Z,4.46
2023-03-04T05:31:25.072Z,4.40
2023-03-04T05:33:51.673Z,4.42
2023-03-04T05:36:18.206Z,4.26
2023-03-04T05:38:44.888Z,4.27
2023-03-04T05:41:11.399Z,4.32
2023-03-04T05:43:42.688Z,4.29
2023-03-04T05:46:13.832Z,4.48
2023-03-04T05:48:40.355Z,4.43
2023-03-04T05:51:07.011Z,4.35
2023-03-04T05:53:36.971Z,4.40
2023-03-04T05:56:11.228Z,4.44
2023-03-04T05:58:38.011Z,4.32
2023-03-04T06:01:05.447Z,4.52
2023-03-04T06:03:32.454Z,4.34
2023-03-04T06:05:59.484Z,4.36
2023-03-04T06:08:27.216Z,4.33
2023-03-04T06:10:55.890Z,4.35
2023-03-04T06:13:22.858Z,4.34
2023-03-04T06:15:54.908Z,4.30
2023-03-04T06:18:22.047Z,4.41
2023-03-04T06:20:48.692Z,4.53
2023-03-04T06:23:15.284Z,4.33
2023-03-04T06:25:41.833Z,4.25
2023-03-04T06:28:08.510Z,4.29
2023-03-04T06:30:35.071Z,4.46
2023-03-04T06:33:01.648Z,4.03
2023-03-04T06:35:28.417Z,4.43
2023-03-04T06:37:54.985Z,4.29
2023-03-04T06:40:21.525Z,4.40
2023-03-04T06:42:48.131Z,4.29
2023-03-04T06:45:14.745Z,4.23
2023-03-04T06:47:41.279Z,4.23
2023-03-04T06:50:08.604Z,4.29
2023-03-04T06:52:35.184Z,4.06
2023-03-04T06:55:01.880Z,4.16
2023-03-04T06:57:28.588Z,4.35
2023-03-04T06:59:55.163Z,4.31
2023-03-04T07:02:22.312Z,4.35
2023-03-04T07:04:48.934Z,4.39
2023-03-04T07:07:15.572Z,3.97
2023-03-04T07:09:42.115Z,4.45
2023-03-04T07:12:08.676Z,4.50
2023-03-04T07:14:35.253Z,4.33
2023-03-04T07:17:01.820Z,4.55
2023-03-04T07:19:28.439Z,4.15
2023-03-04T07:21:55.046Z,4.50
2023-03-04T07:24:21.582Z,4.68
2023-03-04T07:26:48.132Z,4.71
2023-03-04T07:29:14.877Z,4.91
2023-03-04T07:31:41.522Z,4.96
2023-03-04T07:34:12.334Z,4.89
2023-03-04T07:36:39.029Z,4.66
2023-03-04T07:39:06.387Z,4.95
2023-03-04T07:41:36.212Z,5.00
2023-03-04T07:44:04.370Z,4.95
2023-03-04T07:46:31.031Z,4.85
2023-03-04T07:48:57.730Z,5.06
2023-03-04T07:51:26.768Z,5.04
2023-03-04T07:53:57.017Z,4.95
2023-03-04T07:56:26.379Z,4.83
2023-03-04T07:58:53.889Z,4.89
2023-03-04T08:01:26.899Z,5.04
2023-03-04T08:03:53.633Z,5.22
2023-03-04T08:06:21.401Z,5.35
2023-03-04T08:08:49.234Z,5.40
2023-03-04T08:11:19.125Z,5.44
2023-03-04T08:13:46.321Z,5.51
2023-03-04T08:16:15.643Z,5.38
2023-03-04T08:18:48.097Z,5.31
2023-03-04T08:21:16.516Z,5.34
2023-03-04T08:23:43.392Z,5.55
2023-03-04T08:26:13.350Z,5.74
2023-03-04T08:28:40.113Z,5.73
2023-03-04T08:31:07.232Z,5.52
2023-03-04T08:33:34.440Z,5.67
2023-03-04T08:36:01.055Z,5.67
2023-03-04T08:38:27.671Z,5.54
2023-03-04T08:40:56.465Z,5.78
2023-03-04T08:43:24.889Z,5.54
2023-03-04T08:45:52.991Z,5.62
2023-03-04T08:48:19.891Z,5.67
2023-03-04T08:50:47.936Z,5.71
2023-03-04T08:53:15.185Z,5.83
2023-03-04T08:55:42.951Z,5.88
2023-03-04T08:58:10.803Z,5.91
2023-03-04T09:00:39.974Z,6.02
2023-03-04T09:03:06.840Z,6.22
2023-03-04T09:05:33.505Z,6.24
2023-03-04T09:08:00.095Z,6.09
2023-03-04T09:10:26.757Z,6.14
2023-03-04T09:12:53.403Z,6.39
2023-03-04T09:15:20.104Z,6.53
2023-03-04T09:17:46.747Z,6.65
2023-03-04T09:20:13.978Z,6.66
2023-03-04T09:22:42.084Z,6.86
2023-03-04T09:25:13.022Z,6.85
2023-03-04T09:27:40.111Z,6.58
2023-03-04T09:30:07.742Z,6.46
2023-03-04T09:32:34.400Z,6.57
2023-03-04T09:35:00.985Z,6.60
2023-03-04T09:37:27.565Z,6.82
2023-03-04T09:39:54.112Z,6.72
2023-03-04T09:42:43.168Z,6.98
2023-03-04T09:45:16.361Z,7.01
2023-03-04T09:47:44.174Z,6.94
2023-03-04T09:50:12.224Z,6.98
2023-03-04T09:53:20.111Z,7.10
2023-03-04T09:55:50.313Z,7.19
2023-03-04T09:58:55.305Z,7.14
2023-03-04T10:01:26.794Z,7.16
2023-03-04T10:04:02.703Z,7.25
2023-03-04T10:06:31.884Z,7.11
2023-03-04T10:09:23.030Z,7.27
2023-03-04T10:12:04.691Z,7.33
2023-03-04T10:14:34.069Z,7.39
2023-03-04T10:17:19.761Z,7.63
2023-03-04T10:20:12.589Z,7.49
2023-03-04T10:22:45.791Z,7.34
2023-03-04T10:25:29.198Z,7.21
2023-03-04T10:27:57.589Z,6.81
2023-03-04T10:30:48.980Z,6.64
2023-03-04T10:33:21.217Z,6.40
2023-03-04T10:35:57.973Z,6.36
2023-03-04T10:38:25.133Z,6.17
2023-03-04T10:40:51.792Z,6.06
2023-03-04T10:43:20.710Z,5.99
2023-03-04T10:45:48.985Z,5.92
2023-03-04T10:48:28.187Z,5.82
2023-03-04T10:51:10.490Z,5.92
2023-03-04T10:53:43.237Z,5.88
2023-03-04T10:56:52.782Z,6.13
2023-03-04T10:59:46.314Z,6.42
2023-03-04T11:02:25.763Z,6.70
2023-03-04T11:04:53.850Z,6.79
2023-03-04T11:07:22.175Z,6.76
2023-03-04T11:09:48.715Z,6.63
2023-03-04T11:12:19.469Z,6.78
2023-03-04T11:14:51.841Z,6.86
2023-03-04T11:17:20.167Z,6.89
2023-03-04T11:19:59.319Z,7.39
2023-03-04T11:22:29.369Z,7.39
2023-03-04T11:25:23.723Z,7.59
2023-03-04T11:27:58.430Z,7.53
2023-03-04T11:31:06.930Z,7.04
2023-03-04T11:33:42.283Z,6.91
2023-03-04T11:36:19.679Z,7.14
2023-03-04T11:38:49.684Z,7.08
2023-03-04T11:41:35.675Z,7.02
2023-03-04T11:44:06.083Z,6.91
2023-03-04T11:46:33.138Z,6.85
2023-03-04T11:49:21.502Z,6.88
2023-03-04T11:51:53.780Z,7.03
2023-03-04T11:54:57.403Z,7.11
2023-03-04T11:57:29.946Z,7.26
2023-03-04T12:00:35.944Z,7.51
2023-03-04T12:03:27.348Z,7.69
2023-03-04T12:06:12.042Z,7.42
2023-03-04T12:08:58.814Z,7.34
2023-03-04T12:11:43.922Z,7.56
2023-03-04T12:14:30.747Z,7.41
2023-03-04T12:17:38.638Z,6.97
2023-03-04T12:20:20.856Z,6.96
2023-03-04T12:22:57.970Z,6.64
2023-03-04T12:25:28.488Z,6.53
2023-03-04T12:28:32.449Z,6.36
2023-03-04T12:31:17.532Z,6.20
2023-03-04T12:34:06.516Z,6.09
2023-03-04T12:36:51.825Z,6.39
2023-03-04T12:39:32.305Z,6.36
2023-03-04T12:42:20.856Z,6.49
2023-03-04T12:44:55.336Z,6.37
2023-03-04T12:47:34.610Z,6.12
2023-03-04T12:50:04.126Z,6.65
2023-03-04T12:52:59.470Z,6.61
2023-03-04T12:55:42.437Z,6.80
2023-03-04T12:58:35.921Z,6.76
2023-03-04T13:01:29.021Z,6.84
2023-03-04T13:04:03.661Z,6.81
2023-03-04T13:06:43.631Z,6.79
2023-03-04T13:09:22.068Z,6.63
2023-03-04T13:12:04.723Z,6.51
2023-03-04T13:14:33.583Z,6.64
2023-03-04T13:18:01.207Z,6.66
2023-03-04T13:20:30.524Z,6.59
2023-03-04T13:23:10.260Z,6.65
2023-03-04T13:26:00.209Z,6.57
2023-03-04T13:28:37.242Z,6.76
2023-03-04T13:31:16.651Z,6.74
2023-03-04T13:33:53.867Z,6.52
2023-03-04T13:36:29.306Z,6.51
2023-03-04T13:39:23.327Z,6.62
2023-03-04T13:41:53.639Z,6.55
2023-03-04T13:44:56.857Z,6.51
2023-03-04T13:47:31.790Z,6.44
2023-03-04T13:50:25.017Z,6.56
2023-03-04T13:52:52.090Z,6.45
2023-03-04T13:55:38.346Z,6.48
2023-03-04T13:58:35.281Z,6.36
2023-03-04T14:01:01.814Z,6.43
2023-03-04T14:03:31.178Z,6.63
2023-03-04T14:06:12.683Z,6.62
2023-03-04T14:08:39.314Z,6.49
2023-03-04T14:11:13.185Z,6.49
2023-03-04T14:13:39.887Z,6.16
2023-03-04T14:16:07.045Z,6.22
2023-03-04T14:18:33.746Z,6.05
2023-03-04T14:21:01.246Z,6.00
2023-03-04T14:23:36.271Z,6.10
2023-03-04T14:26:05.533Z,6.29
2023-03-04T14:28:32.210Z,6.27
2023-03-04T14:30:59.016Z,6.23
2023-03-04T14:33:28.532Z,6.26
2023-03-04T14:35:58.009Z,6.27
2023-03-04T14:38:44.045Z,6.41
2023-03-04T14:41:17.360Z,6.61
2023-03-04T14:44:11.367Z,6.76
2023-03-04T14:46:51.303Z,6.74
2023-03-04T14:49:23.832Z,6.64
2023-03-04T14:51:54.103Z,6.58
2023-03-04T14:55:00.694Z,6.64
2023-03-04T14:57:34.089Z,6.41
2023-03-04T15:00:34.256Z,6.36
2023-03-04T15:03:04.752Z,6.30
2023-03-04T15:05:36.422Z,6.34
2023-03-04T15:08:07.050Z,6.27
2023-03-04T15:10:36.767Z,6.41
2023-03-04T15:13:06.709Z,6.42
2023-03-04T15:15:36.076Z,6.65
2023-03-04T15:18:26.024Z,6.56
2023-03-04T15:21:04.023Z,6.55
2023-03-04T15:23:32.586Z,6.18
2023-03-04T15:26:04.607Z,6.35
2023-03-04T15:28:39.103Z,6.40
2023-03-04T15:31:06.848Z,6.32
2023-03-04T15:33:34.198Z,6.29
2023-03-04T15:36:02.858Z,6.28
2023-03-04T15:38:30.007Z,6.17
2023-03-04T15:40:58.556Z,6.26
2023-03-04T15:43:25.690Z,6.19
2023-03-04T15:45:53.489Z,6.22
2023-03-04T15:48:20.795Z,6.22
2023-03-04T15:50:56.013Z,6.08
2023-03-04T15:53:35.878Z,6.18
2023-03-04T15:56:04.413Z,6.14
2023-03-04T15:58:34.857Z,6.21
2023-03-04T16:01:01.869Z,6.06
2023-03-04T16:03:28.525Z,5.89
2023-03-04T16:05:55.060Z,5.95
2023-03-04T16:08:22.926Z,6.14
2023-03-04T16:10:50.783Z,6.06
2023-03-04T16:13:20.024Z,5.85
2023-03-04T16:15:47.350Z,5.69
2023-03-04T16:18:15.351Z,5.84
2023-03-04T16:20:44.509Z,5.82
2023-03-04T16:23:14.369Z,5.70
2023-03-04T16:25:44.396Z,5.60
2023-03-04T16:28:11.976Z,5.62
2023-03-04T16:30:38.756Z,5.62
2023-03-04T16:33:05.463Z,5.46
2023-03-04T16:35:34.417Z,5.53
2023-03-04T16:38:01.104Z,5.43
2023-03-04T16:40:30.202Z,5.55
2023-03-04T16:42:57.054Z,5.51
2023-03-04T16:45:31.453Z,5.54
2023-03-04T16:47:58.218Z,5.51
2023-03-04T16:50:27.413Z,5.45
2023-03-04T16:52:55.292Z,5.20
2023-03-04T16:55:27.249Z,5.31
2023-03-04T16:57:55.272Z,5.18
2023-03-04T17:00:23.635Z,5.07
2023-03-04T17:02:59.174Z,4.95
2023-03-04T17:05:30.843Z,4.87
2023-03-04T17:07:57.714Z,5.11
2023-03-04T17:10:25.479Z,4.88
2023-03-04T17:12:52.391Z,4.96
2023-03-04T17:15:19.043Z,4.82
2023-03-04T17:17:46.224Z,4.76
2023-03-04T17:20:18.117Z,4.89
2023-03-04T17:22:45.228Z,4.91
2023-03-04T17:25:12.718Z,4.94
2023-03-04T17:27:39.330Z,4.82
2023-03-04T17:30:08.008Z,4.85
2023-03-04T17:32:35.164Z,4.84
2023-03-04T17:35:03.155Z,4.88
2023-03-04T17:37:29.654Z,4.70
2023-03-04T17:39:56.185Z,4.77
2023-03-04T17:42:22.735Z,4.67
2023-03-04T17:44:49.424Z,4.80
2023-03-04T17:47:16.149Z,4.79
2023-03-04T17:49:42.990Z,4.78
2023-03-04T17:52:10.931Z,4.76
2023-03-04T17:54:38.030Z,4.67
2023-03-04T17:57:05.369Z,4.71
2023-03-04T17:59:32.110Z,4.79
2023-03-04T18:01:58.721Z,4.58
2023-03-04T18:04:25.357Z,4.62
2023-03-04T18:06:51.936Z,4.51
2023-03-04T18:09:18.502Z,4.60
2023-03-04T18:11:45.104Z,4.67
2023-03-04T18:14:12.811Z,4.58
2023-03-04T18:16:39.971Z,4.48
2023-03-04T18:19:06.593Z,4.51
2023-03-04T18:21:33.239Z,4.45
2023-03-04T18:23:59.852Z,4.37
2023-03-04T18:26:26.963Z,4.52
2023-03-04T18:28:55.616Z,4.58
2023-03-04T18:31:25.085Z,4.52
2023-03-04T18:33:52.558Z,4.44
2023-03-04T18:36:19.352Z,4.09
2023-03-04T18:38:45.970Z,4.39
2023-03-04T18:41:14.441Z,4.45
2023-03-04T18:43:41.176Z,4.23
2023-03-04T18:46:11.473Z,4.31
2023-03-04T18:48:41.931Z,4.28
2023-03-04T18:51:08.509Z,4.30
2023-03-04T18:53:35.120Z,4.29
2023-03-04T18:56:08.008Z,4.37
2023-03-04T18:58:38.365Z,4.28
2023-03-04T19:01:09.475Z,4.23
2023-03-04T19:03:37.705Z,4.26
2023-03-04T19:06:06.240Z,4.23
2023-03-04T19:08:32.931Z,4.13
2023-03-04T19:10:59.854Z,4.30
2023-03-04T19:13:28.358Z,4.18
2023-03-04T19:15:56.796Z,3.99
2023-03-04T19:18:23.297Z,4.12
2023-03-04T19:20:50.095Z,4.14
2023-03-04T19:23:18.020Z,4.15
2023-03-04T19:25:45.285Z,3.98
2023-03-04T19:28:12.735Z,4.03
2023-03-04T19:30:40.838Z,4.00
2023-03-04T19:33:08.210Z,3.95
2023-03-04T19:35:34.973Z,3.81
2023-03-04T19:38:01.624Z,3.97
2023-03-04T19:40:28.678Z,3.84
2023-03-04T19:42:56.791Z,3.93
2023-03-04T19:45:24.902Z,3.98
2023-03-04T19:47:52.188Z,3.88
2023-03-04T19:50:19.226Z,3.69
2023-03-04T19:52:46.010Z,3.63
2023-03-04T19:55:15.414Z,3.69
2023-03-04T19:57:42.364Z,3.57
2023-03-04T20:00:11.181Z,3.60
2023-03-04T20:02:37.931Z,3.60
2023-03-04T20:05:05.636Z,3.30
2023-03-04T20:07:32.237Z,3.66
2023-03-04T20:09:58.790Z,3.67
2023-03-04T20:12:25.399Z,3.69
2023-03-04T20:14:52.020Z,3.73
2023-03-04T20:17:18.695Z,3.72
2023-03-04T20:19:45.397Z,3.14
2023-03-04T20:22:13.400Z,3.72
2023-03-04T20:24:40.060Z,3.62
2023-03-04T20:27:06.645Z,3.68
2023-03-04T20:29:33.214Z,3.63
2023-03-04T20:31:59.875Z,3.63
2023-03-04T20:34:27.128Z,3.77
2023-03-04T20:36:53.877Z,3.61
2023-03-04T20:39:29.099Z,3.60
2023-03-04T20:41:58.318Z,3.70
2023-03-04T20:44:25.059Z,3.70
2023-03-04T20:46:51.901Z,3.78
2023-03-04T20:49:24.494Z,3.65
2023-03-04T20:52:02.807Z,3.61
2023-03-04T20:54:30.241Z,3.45
2023-03-04T20:56:56.844Z,3.24
2023-03-04T20:59:23.390Z,3.33
2023-03-04T21:01:50.270Z,3.35
2023-03-04T21:04:17.149Z,3.08
2023-03-04T21:06:45.159Z,3.25
2023-03-04T21:09:15.052Z,3.22
2023-03-04T21:11:42.616Z,2.96
2023-03-04T21:14:24.865Z,3.09
2023-03-04T21:16:56.882Z,3.02
2023-03-04T21:19:29.674Z,2.97
2023-03-04T21:21:58.053Z,3.04
2023-03-04T21:24:27.989Z,2.99
2023-03-04T21:26:54.946Z,2.97
2023-03-04T21:29:23.782Z,2.98
2023-03-04T21:31:52.893Z,3.01
2023-03-04T21:34:26.777Z,2.97
2023-03-04T21:36:53.338Z,2.88
2023-03-04T21:39:22.211Z,2.96
2023-03-04T21:41:49.183Z,2.97
2023-03-04T21:44:27.621Z,2.91
2023-03-04T21:46:56.957Z,2.98
2023-03-04T21:49:23.755Z,2.83
2023-03-04T21:51:50.318Z,3.12
2023-03-04T21:54:17.035Z,3.16
2023-03-04T21:56:43.715Z,3.06
2023-03-04T21:59:13.375Z,3.19
2023-03-04T22:01:40.404Z,3.08
2023-03-04T22:04:07.172Z,3.06
2023-03-04T22:06:34.448Z,3.01
2023-03-04T22:09:02.401Z,3.10
2023-03-04T22:11:30.154Z,3.20
2023-03-04T22:13:58.571Z,3.08
2023-03-04T22:16:25.810Z,3.18
2023-03-04T22:18:52.983Z,3.05
2023-03-04T22:21:21.030Z,3.05
2023-03-04T22:23:48.059Z,3.12
2023-03-04T22:26:21.678Z,3.21
2023-03-04T22:28:48.276Z,3.20
2023-03-04T22:31:18.788Z,3.19
2023-03-04T22:33:46.127Z,2.94
2023-03-04T22:36:13.692Z,3.09
2023-03-04T22:38:40.952Z,2.76
2023-03-04T22:41:19.091Z,3.04
2023-03-04T22:43:46.472Z,3.02
2023-03-04T22:46:24.732Z,2.97
2023-03-04T22:48:53.070Z,2.96
2023-03-04T22:51:20.805Z,2.69
2023-03-04T22:53:48.538Z,2.85
2023-03-04T22:56:15.671Z,2.78
2023-03-04T22:58:44.346Z,2.65
2023-03-04T23:01:11.930Z,2.89
2023-03-04T23:03:39.955Z,2.78
2023-03-04T23:06:22.437Z,2.84
2023-03-04T23:08:50.801Z,2.98
2023-03-04T23:11:32.042Z,2.84
2023-03-04T23:13:59.109Z,2.91
2023-03-04T23:16:27.894Z,2.90
2023-03-04T23:18:54.685Z,2.72
2023-03-04T23:21:23.511Z,2.92
2023-03-04T23:23:51.393Z,2.79
2023-03-04T23:26:23.642Z,2.87
2023-03-04T23:28:50.894Z,2.81
2023-03-04T23:31:18.401Z,2.68
2023-03-04T23:33:47.548Z,2.77
2023-03-04T23:36:17.016Z,2.80
2023-03-04T23:38:45.350Z,2.65
2023-03-04T23:41:13.769Z,2.53
2023-03-04T23:43:40.600Z,2.79
2023-03-04T23:46:09.410Z,2.78
2023-03-04T23:48:36.043Z,2.60
2023-03-04T23:51:02.692Z,2.52
2023-03-04T23:53:29.496Z,2.41
2023-03-04T23:55:56.451Z,2.50
2023-03-04T23:58:23.007Z,2.36
